Weather observations for the past three days for
Tulsa - Jones Jr. Airport
Imperial (Metric)
Date Time (cdt) Wind (mph) Vis. (mi.) Weather Sky Cond. Temperature (ºF) Relative Humidity Wind Chill (°F) Heat Index (°F) Pressure Precipitation (in)
Air Dwpt 6 hour altimeter (in) sea level (mb) 1 hr 3 hr 6 hr
Max. Min.
02 01:53 Calm 10.00 Fair CLR 75.9 70 82% 77 29.98 1015.2
02 00:53 Calm 10.00 A Few Clouds FEW110 78.1 70 99 78.1 76% 80 29.97 1014.9
01 23:53 Calm 10.00 Fair CLR 79 69.1 72% 82 29.96 1014.6
01 22:53 Calm 10.00 Partly Cloudy SCT095 80.1 70 71% 83 29.96 1014.5
01 21:53 Calm 10.00 A Few Clouds FEW100 81 70 69% 84 29.94 1013.9
01 20:53 Calm 10.00 Fair CLR 82.9 70 65% 87 29.91 1013.1
01 19:53 Calm 10.00 Fair CLR 86 69.1 57% 90 29.91 1013.0
01 18:53 S 7 10.00 Fair CLR 99 64 100.9 97 32% 102 29.92 1013.2
01 17:53 S 8 10.00 Fair CLR 100 64.9 32% 103 29.92 1013.4
01 16:53 Calm 10.00 A Few Clouds FEW090 100.9 64.9 31% 105 29.93 1013.4
01 15:53 S 5 10.00 Fair CLR 100.9 63 29% 103 29.94 1013.8
01 14:53 S 7 10.00 Partly Cloudy FEW090 SCT100 98.1 64 33% 101 29.96 1014.7
01 13:53 E 8 G 17 10.00 Mostly Cloudy BKN075 BKN100 98.1 70 40% 105 29.99 1015.5
01 12:53 S 7 10.00 Fair CLR 97 68 98.1 73.9 39% 102 30.01 1016.4
01 11:53 S 7 10.00 Fair CLR 96.1 71.1 44% 104 30.03 1017.1
01 10:53 S 6 10.00 Mostly Cloudy BKN100 91 72 54% 99 30.04 1017.5
01 09:53 S 7 10.00 Mostly Cloudy BKN095 87.1 71.1 59% 93 30.05 1017.7
01 08:53 S 6 10.00 Mostly Cloudy BKN095 84 69.1 61% 88 30.05 1017.7
01 07:53 Calm 10.00 A Few Clouds FEW090 77 70 79% 79 30.04 1017.5
01 06:53 Calm 10.00 Partly Cloudy SCT095 73.9 68 78.1 73.9 82% 30.02 1016.8
01 05:53 Calm 10.00 Partly Cloudy SCT095 73.9 68 82% 30.02 1016.6
01 04:53 Calm 10.00 A Few Clouds FEW100 75 68 79% 76 30.01 1016.1
01 03:53 Calm 10.00 Mostly Cloudy BKN100 77 68 74% 79 30 1015.9
01 02:53 Calm 10.00 Overcast OVC100 78.1 70 76% 80 29.99 1015.7
01 01:53 Calm 10.00 Overcast OVC095 78.1 69.1 74% 80 29.99 1015.7
01 00:53 Calm 10.00 Mostly Cloudy BKN095 77 68 98.1 75.9 74% 79 29.99 1015.4
31 23:53 Calm 10.00 Partly Cloudy SCT095 78.1 68 71% 80 29.97 1015.0
31 22:53 Calm 10.00 Fair CLR 78.1 68 71% 80 29.97 1014.9
31 21:53 Calm 10.00 Fair CLR 80.1 66.9 64% 82 29.95 1014.5
31 20:53 Calm 10.00 Fair CLR 82 68 63% 85 29.94 1014.0
31 19:53 Calm 10.00 Fair CLR 84.9 68 57% 88 29.92 1013.5
31 18:53 S 8 10.00 Fair CLR 98.1 62.1 102 97 31% 99 29.92 1013.3
31 17:53 S 12 10.00 Fair CLR 100 62.1 29% 102 29.92 1013.1
31 16:53 SW 10 10.00 A Few Clouds FEW095 100.9 63 29% 103 29.93 1013.4
31 15:53 S 8 G 17 10.00 Fair CLR 100.9 63 29% 103 29.94 1013.9
31 14:53 S 7 10.00 Fair CLR 100.9 62.1 28% 103 29.96 1014.6
31 13:53 S 9 G 18 10.00 Fair CLR 99 63 31% 101 29.98 1015.3
31 12:53 S 14 G 20 10.00 Fair CLR 99 64.9 99 71.1 33% 102 30 1016.0
31 11:53 Vrbl 3 10.00 Fair CLR 95 69.1 43% 101 30.03 1016.9
31 10:53 S 3 10.00 Fair CLR 91 69.1 49% 96 30.03 1017.1
31 09:53 S 7 10.00 Fair CLR 87.1 68 53% 91 30.03 1016.9
31 08:53 SW 3 10.00 Fair CLR 81 66.9 62% 83 30.03 1017.2
31 07:53 Calm 9.00 Fair CLR 75 68 79% 76 30.02 1016.6
31 06:53 Calm 8.00 Fair CLR 70 66 82.9 70 87% 29.99 1015.8
31 05:53 Calm 10.00 Fair CLR 75 66 74% 76 29.97 1015.0
31 04:53 S 5 10.00 Fair CLR 79 64 60% 81 29.96 1014.6
31 03:53 S 5 10.00 Fair CLR 80.1 64.9 60% 82 29.95 1014.4
31 02:53 S 6 10.00 Fair CLR 82 64.9 56% 84 29.94 1014.0
31 01:53 SE 5 10.00 Fair CLR 79 66 65% 81 29.94 1013.9
31 00:53 Calm 10.00 Fair CLR 75.9 68 99 75.9 77% 77 29.93 1013.8
30 23:53 Calm 10.00 Fair CLR 77 66.9 71% 79 29.92 1013.4
30 22:53 Calm 10.00 Fair CLR 79 66.9 67% 81 29.92 1013.2
30 21:53 S 5 10.00 Fair CLR 84.9 64.9 51% 87 29.91 1012.9
30 20:53 SE 5 10.00 Fair CLR 93 62.1 36% 94 29.88 1011.9
30 19:53 S 7 10.00 Fair CLR 96.1 62.1 32% 97 29.87 1011.6
30 18:53 S 8 10.00 Fair CLR 99 63 102.9 97 31% 101 29.87 1011.6
30 17:53 S 12 G 22 10.00 Fair CLR 100 63 30% 102 29.87 1011.5
30 16:53 S 9 10.00 Fair CLR 100.9 63 29% 103 29.88 1011.8
30 15:53 S 12 G 17 10.00 Fair CLR 102 64 29% 105 29.89 1012.2
30 14:53 SW 10 G 17 10.00 Fair CLR 100.9 66.9 33% 106 29.92 1013.1
30 13:53 S 14 10.00 Fair CLR 99 64.9 33% 102 29.94 1013.7
30 12:53 S 13 G 20 10.00 Fair CLR 97 68 97 75.9 39% 102 29.95 1014.4
30 11:53 S 10 10.00 Fair CLR 95 69.1 43% 101 29.98 1015.2
30 10:53 S 10 10.00 Fair CLR 90 66.9 47% 93 29.99 1015.6
30 09:53 S 10 G 22 10.00 Fair CLR 87.1 66 50% 89 30 1015.8
30 08:53 S 8 10.00 Fair CLR 81 64 57% 83 30 1016.2
30 07:53 S 7 10.00 Fair CLR 78.1 63 60% 80 30 1015.9
30 06:53 S 6 10.00 Fair CLR 75.9 63 84 71.1 64% 78 29.99 1015.6
30 05:53 S 3 10.00 Fair CLR 73.9 64.9 74% 29.98 1015.5
30 04:53 S 5 10.00 Fair CLR 78.1 63 60% 80 29.97 1015.0
30 03:53 S 3 10.00 Fair CLR 78.1 63 60% 80 29.96 1014.7
Date Time (cdt) Wind (mph) Vis. (mi.) Weather Sky Cond. Air Dwpt Max. Min. Relative Humidity Wind Chill (°F) Heat Index (°F) altimeter (in) sea level (mb) 1 hr 3 hr 6 hr
6 hour
Temperature (ºF) Pressure Precipitation (in)